Time,TemperatureF,DewpointF,PressureIn,WindDirection,WindDirectionDegrees,WindSpeedMPH,WindSpeedGustMPH,Humidity,HourlyPrecipIn,Conditions,Clouds,dailyrainin,SoftwareType,DateUTC
2013-07-16 00:32:00,67.0,36.0,29.73,NNW,330,4.0,-999.0,32,0.00,,,-99.99,,2013-07-16 07:32:00,
2013-07-16 00:43:00,67.0,36.0,29.73,NNW,330,4.0,-999.0,32,0.00,,,-99.99,,2013-07-16 07:43:00,
2013-07-16 00:52:00,67.0,36.0,29.73,NNW,330,4.0,-999.0,32,0.00,,,-99.99,,2013-07-16 07:52:00,
2013-07-16 01:32:00,68.0,35.0,29.72,NE,50,1.0,-999.0,30,0.00,,,-99.99,,2013-07-16 08:32:00,
2013-07-16 01:43:00,68.0,35.0,29.72,NE,50,1.0,-999.0,30,0.00,,,-99.99,,2013-07-16 08:43:00,
2013-07-16 01:52:00,68.0,35.0,29.72,NE,50,1.0,-999.0,30,0.00,,,-99.99,,2013-07-16 08:52:00,
2013-07-16 02:32:00,68.0,34.0,29.71,ESE,120,15.0,-999.0,28,0.00,,,-99.99,,2013-07-16 09:32:00,
2013-07-16 02:42:00,68.0,34.0,29.71,ESE,120,15.0,-999.0,28,0.00,,,-99.99,,2013-07-16 09:42:00,
2013-07-16 02:52:00,68.0,34.0,29.71,ESE,120,15.0,-999.0,28,0.00,,,-99.99,,2013-07-16 09:52:00,
2013-07-16 03:31:00,68.0,32.0,29.70,SSW,210,2.0,-999.0,26,0.00,,,-99.99,,2013-07-16 10:31:00,
2013-07-16 03:43:00,68.0,32.0,29.70,SSW,210,2.0,-999.0,26,0.00,,,-99.99,,2013-07-16 10:43:00,
2013-07-16 03:52:00,68.0,32.0,29.70,SSW,210,2.0,-999.0,26,0.00,,,-99.99,,2013-07-16 10:52:00,
2013-07-16 04:32:00,68.0,29.0,29.70,SE,140,1.0,-999.0,23,0.00,,,-99.99,,2013-07-16 11:32:00,
2013-07-16 04:42:00,68.0,29.0,29.70,SE,140,1.0,-999.0,23,0.00,,,-99.99,,2013-07-16 11:42:00,
2013-07-16 04:52:00,68.0,29.0,29.70,SE,140,1.0,-999.0,23,0.00,,,-99.99,,2013-07-16 11:52:00,
2013-07-16 05:32:00,68.0,28.0,29.70,East,80,2.0,-999.0,22,0.00,,,-99.99,,2013-07-16 12:32:00,
2013-07-16 05:43:00,68.0,28.0,29.70,East,80,2.0,-999.0,22,0.00,,,-99.99,,2013-07-16 12:43:00,
2013-07-16 05:53:00,68.0,28.0,29.70,East,80,2.0,-999.0,22,0.00,,,-99.99,,2013-07-16 12:53:00,
2013-07-16 06:32:00,68.0,30.0,29.71,South,190,3.0,-999.0,24,0.00,,,-99.99,,2013-07-16 13:32:00,
2013-07-16 06:42:00,68.0,30.0,29.71,South,190,3.0,-999.0,24,0.00,,,-99.99,,2013-07-16 13:42:00,
2013-07-16 06:52:00,68.0,30.0,29.71,South,190,3.0,-999.0,24,0.00,,,-99.99,,2013-07-16 13:52:00,
2013-07-16 07:32:00,66.0,34.0,29.73,NE,40,1.0,-999.0,30,0.00,,,-99.99,,2013-07-16 14:32:00,
2013-07-16 07:42:00,66.0,34.0,29.73,NE,40,1.0,-999.0,30,0.00,,,-99.99,,2013-07-16 14:42:00,
2013-07-16 07:52:00,66.0,34.0,29.73,NE,40,1.0,-999.0,30,0.00,,,-99.99,,2013-07-16 14:52:00,
2013-07-16 08:32:00,67.0,34.0,29.76,South,180,7.0,-999.0,29,0.00,,,-99.99,,2013-07-16 15:32:00,
2013-07-16 08:43:00,67.0,34.0,29.76,South,180,7.0,-999.0,29,0.00,,,-99.99,,2013-07-16 15:43:00,
2013-07-16 08:53:00,67.0,34.0,29.76,South,180,7.0,-999.0,29,0.00,,,-99.99,,2013-07-16 15:53:00,
2013-07-16 09:32:00,69.0,38.0,29.76,SSE,160,2.0,-999.0,32,0.00,,,-99.99,,2013-07-16 16:32:00,
2013-07-16 09:43:00,69.0,38.0,29.76,SSE,160,2.0,-999.0,32,0.00,,,-99.99,,2013-07-16 16:43:00,
2013-07-16 09:52:00,69.0,38.0,29.76,SSE,160,2.0,-999.0,32,0.00,,,-99.99,,2013-07-16 16:52:00,
2013-07-16 10:32:00,73.0,37.0,29.76,SW,230,10.0,-999.0,27,0.00,,,-99.99,,2013-07-16 17:32:00,
2013-07-16 10:43:00,73.0,37.0,29.76,SW,230,10.0,-999.0,27,0.00,,,-99.99,,2013-07-16 17:43:00,
2013-07-16 10:53:00,73.0,37.0,29.76,SW,230,10.0,-999.0,27,0.00,,,-99.99,,2013-07-16 17:53:00,
2013-07-16 11:43:00,75.0,34.0,29.78,WSW,240,5.0,-999.0,22,0.00,,,-99.99,,2013-07-16 18:43:00,
2013-07-16 11:52:00,75.0,34.0,29.78,WSW,240,5.0,-999.0,22,0.00,,,-99.99,,2013-07-16 18:52:00,
2013-07-16 12:32:00,75.0,26.0,29.80,South,180,3.0,-999.0,16,0.00,,,-99.99,,2013-07-16 19:32:00,
2013-07-16 12:43:00,75.0,26.0,29.80,South,180,3.0,-999.0,16,0.00,,,-99.99,,2013-07-16 19:43:00,
2013-07-16 12:52:00,75.0,26.0,29.80,South,180,3.0,-999.0,16,0.00,,,-99.99,,2013-07-16 19:52:00,
2013-07-16 13:43:00,76.0,20.0,29.80,North,0,0.0,-999.0,12,0.00,,,-99.99,,2013-07-16 20:43:00,
2013-07-16 13:52:00,76.0,20.0,29.80,North,0,0.0,-999.0,12,0.00,,,-99.99,,2013-07-16 20:52:00,
2013-07-16 14:43:00,76.0,23.0,29.81,NE,50,3.0,-999.0,14,0.00,,,-99.99,,2013-07-16 21:43:00,
2013-07-16 14:52:00,76.0,23.0,29.81,NE,50,3.0,-999.0,14,0.00,,,-99.99,,2013-07-16 21:52:00,
2013-07-16 15:33:00,77.0,26.0,29.81,WSW,240,1.0,-999.0,15,0.00,,,-99.99,,2013-07-16 22:33:00,
2013-07-16 15:43:00,77.0,26.0,29.81,WSW,240,1.0,-999.0,15,0.00,,,-99.99,,2013-07-16 22:43:00,
2013-07-16 15:52:00,77.0,26.0,29.81,WSW,240,1.0,-999.0,15,0.00,,,-99.99,,2013-07-16 22:52:00,
2013-07-16 16:32:00,76.0,29.0,29.81,North,0,0.0,-999.0,18,0.00,,,-99.99,,2013-07-16 23:32:00,
2013-07-16 16:42:00,76.0,29.0,29.81,North,0,0.0,-999.0,18,0.00,,,-99.99,,2013-07-16 23:42:00,
2013-07-16 16:52:00,76.0,29.0,29.81,North,0,0.0,-999.0,18,0.00,,,-99.99,,2013-07-16 23:52:00,
2013-07-16 17:33:00,75.0,32.0,29.81,SE,140,3.0,-999.0,21,0.00,,,-99.99,,2013-07-17 00:33:00,
2013-07-16 17:42:00,75.0,32.0,29.81,SE,140,3.0,-999.0,21,0.00,,,-99.99,,2013-07-17 00:42:00,
2013-07-16 17:52:00,75.0,32.0,29.81,SE,140,3.0,-999.0,21,0.00,,,-99.99,,2013-07-17 00:52:00,
2013-07-16 18:32:00,73.0,39.0,29.79,WSW,240,1.0,-999.0,29,0.00,,,-99.99,,2013-07-17 01:32:00,
2013-07-16 18:42:00,73.0,39.0,29.79,WSW,240,1.0,-999.0,29,0.00,,,-99.99,,2013-07-17 01:42:00,
2013-07-16 18:52:00,73.0,39.0,29.79,WSW,240,1.0,-999.0,29,0.00,,,-99.99,,2013-07-17 01:52:00,
2013-07-16 19:32:00,70.0,42.0,29.80,North,0,0.0,-999.0,36,0.00,,,-99.99,,2013-07-17 02:32:00,
2013-07-16 19:43:00,70.0,42.0,29.80,North,0,0.0,-999.0,36,0.00,,,-99.99,,2013-07-17 02:43:00,
2013-07-16 19:53:00,70.0,42.0,29.80,North,0,0.0,-999.0,36,0.00,,,-99.99,,2013-07-17 02:53:00,
2013-07-16 20:43:00,66.0,41.0,29.81,North,0,0.0,-999.0,40,0.00,,,-99.99,,2013-07-17 03:43:00,
2013-07-16 20:52:00,66.0,41.0,29.81,North,0,0.0,-999.0,40,0.00,,,-99.99,,2013-07-17 03:52:00,
2013-07-16 21:32:00,67.0,29.0,29.82,North,0,0.0,-999.0,24,0.00,,,-99.99,,2013-07-17 04:32:00,
2013-07-16 21:43:00,67.0,29.0,29.82,North,0,0.0,-999.0,24,0.00,,,-99.99,,2013-07-17 04:43:00,
2013-07-16 21:53:00,67.0,29.0,29.82,North,0,0.0,-999.0,24,0.00,,,-99.99,,2013-07-17 04:53:00,
2013-07-16 22:32:00,65.0,28.0,29.85,North,0,0.0,-999.0,25,0.00,,,-99.99,,2013-07-17 05:32:00,
2013-07-16 22:43:00,65.0,28.0,29.85,North,0,0.0,-999.0,25,0.00,,,-99.99,,2013-07-17 05:43:00,
2013-07-16 22:52:00,65.0,28.0,29.85,North,0,0.0,-999.0,25,0.00,,,-99.99,,2013-07-17 05:52:00,
2013-07-16 23:32:00,65.0,22.0,29.86,North,0,0.0,-999.0,19,0.00,,,-99.99,,2013-07-17 06:32:00,
2013-07-16 23:43:00,65.0,22.0,29.86,North,0,0.0,-999.0,19,0.00,,,-99.99,,2013-07-17 06:43:00,
2013-07-16 23:52:00,65.0,22.0,29.86,North,0,0.0,-999.0,19,0.00,,,-99.99,,2013-07-17 06:52:00,